createdAt,value
2023-01-04T00:01:34.261Z,4.47
2023-01-04T00:04:02.539Z,4.47
2023-01-04T00:06:30.733Z,4.30
2023-01-04T00:08:58.779Z,4.70
2023-01-04T00:11:27.153Z,3.23
2023-01-04T00:13:59.156Z,3.50
2023-01-04T00:16:29.774Z,3.93
2023-01-04T00:18:58.242Z,2.87
2023-01-04T00:21:28.217Z,3.70
2023-01-04T00:23:58.519Z,4.70
2023-01-04T00:26:28.092Z,5.03
2023-01-04T00:28:56.962Z,3.00
2023-01-04T00:31:25.784Z,3.17
2023-01-04T00:33:56.861Z,3.60
2023-01-04T00:36:25.555Z,4.10
2023-01-04T00:39:08.636Z,3.03
2023-01-04T00:44:27.854Z,2.60
2023-01-04T00:46:55.830Z,2.67
2023-01-04T00:49:25.738Z,3.17
2023-01-04T00:51:54.010Z,4.77
2023-01-04T00:54:23.048Z,2.70
2023-01-04T00:57:01.579Z,2.77
2023-01-04T00:59:29.642Z,2.33
2023-01-04T01:01:57.926Z,3.47
2023-01-04T01:04:27.597Z,2.47
2023-01-04T01:06:55.627Z,3.47
2023-01-04T01:09:24.171Z,2.67
2023-01-04T01:11:53.674Z,3.00
2023-01-04T01:14:24.292Z,2.20
2023-01-04T01:16:56.375Z,2.70
2023-01-04T01:19:27.715Z,2.07
2023-01-04T01:21:57.071Z,3.43
2023-01-04T01:24:25.601Z,2.13
2023-01-04T01:26:53.644Z,1.87
2023-01-04T01:29:21.881Z,2.20
2023-01-04T01:31:50.002Z,2.63
2023-01-04T01:34:17.975Z,2.10
2023-01-04T01:36:47.491Z,2.13
2023-01-04T01:39:15.559Z,2.43
2023-01-04T01:41:43.683Z,3.00
2023-01-04T01:44:45.331Z,2.40
2023-01-04T01:47:16.116Z,2.67
2023-01-04T01:49:45.878Z,2.07
2023-01-04T01:52:19.867Z,2.60
2023-01-04T01:54:52.944Z,2.20
2023-01-04T01:57:25.900Z,2.17
2023-01-04T01:59:56.732Z,2.20
2023-01-04T02:02:24.852Z,2.07
2023-01-04T02:04:53.322Z,2.27
2023-01-04T02:07:27.015Z,2.60
2023-01-04T02:09:56.020Z,3.43
2023-01-04T02:12:23.852Z,2.27
2023-01-04T02:14:52.799Z,2.50
2023-01-04T02:17:32.570Z,2.47
2023-01-04T02:20:28.955Z,2.20
2023-01-04T02:23:22.413Z,2.23
2023-01-04T02:26:23.782Z,2.20
2023-01-04T02:29:11.210Z,2.43
2023-01-04T02:31:41.918Z,2.53
2023-01-04T02:34:17.386Z,2.93
2023-01-04T02:36:56.519Z,2.13
2023-01-04T02:39:35.639Z,2.33
2023-01-04T02:42:12.805Z,2.67
2023-01-04T02:45:04.885Z,2.30
2023-01-04T02:47:55.111Z,3.33
2023-01-04T02:50:32.990Z,2.50
2023-01-04T02:53:04.019Z,2.47
2023-01-04T02:55:44.337Z,2.67
2023-01-04T02:58:26.683Z,2.50
2023-01-04T03:01:17.409Z,2.40
2023-01-04T03:04:17.479Z,2.83
2023-01-04T03:06:52.729Z,3.17
2023-01-04T03:09:23.481Z,2.50
2023-01-04T03:12:14.413Z,3.17
2023-01-04T03:14:48.814Z,2.10
2023-01-04T03:17:21.219Z,2.20
2023-01-04T03:19:55.127Z,2.23
2023-01-04T03:22:45.723Z,2.40
2023-01-04T03:25:32.453Z,2.23
2023-01-04T03:28:19.409Z,2.10
2023-01-04T03:31:09.846Z,1.63
2023-01-04T03:33:55.713Z,2.10
2023-01-04T03:36:34.248Z,2.40
2023-01-04T03:39:28.317Z,2.17
2023-01-04T03:42:22.764Z,2.40
2023-01-04T03:45:15.266Z,2.63
2023-01-04T03:48:07.754Z,2.40
2023-01-04T03:50:39.485Z,1.80
2023-01-04T03:53:10.296Z,2.00
2023-01-04T03:55:40.125Z,2.70
2023-01-04T03:58:08.588Z,2.30
2023-01-04T04:00:36.599Z,2.37
2023-01-04T04:03:08.286Z,1.87
2023-01-04T04:05:58.112Z,2.80
2023-01-04T04:08:30.131Z,2.10
2023-01-04T04:11:19.749Z,2.63
2023-01-04T04:13:47.861Z,1.87
2023-01-04T04:16:15.980Z,2.70
2023-01-04T04:18:44.361Z,1.97
2023-01-04T04:21:12.344Z,2.30
2023-01-04T04:23:41.934Z,2.90
2023-01-04T04:26:10.291Z,2.47
2023-01-04T04:28:38.417Z,1.80
2023-01-04T04:31:06.594Z,3.13
2023-01-04T04:33:34.708Z,2.43
2023-01-04T04:36:02.713Z,2.63
2023-01-04T04:38:30.735Z,2.87
2023-01-04T04:41:17.519Z,2.13
2023-01-04T04:43:45.537Z,2.20
2023-01-04T04:46:13.556Z,3.00
2023-01-04T04:48:41.637Z,2.33
2023-01-04T04:51:09.694Z,2.70
2023-01-04T04:53:37.804Z,2.77
2023-01-04T04:56:08.783Z,2.57
2023-01-04T04:58:37.371Z,2.10
2023-01-04T05:01:06.150Z,2.27
2023-01-04T05:03:34.708Z,2.60
2023-01-04T05:06:02.790Z,4.07
2023-01-04T05:08:31.646Z,2.10
2023-01-04T05:10:59.877Z,4.37
2023-01-04T05:13:28.267Z,2.47
2023-01-04T05:15:57.045Z,2.53
2023-01-04T05:18:25.085Z,3.20
2023-01-04T05:20:53.083Z,1.93
2023-01-04T05:23:22.835Z,3.27
2023-01-04T05:25:54.134Z,2.73
2023-01-04T05:28:22.164Z,2.07
2023-01-04T05:30:51.629Z,2.73
2023-01-04T05:33:24.129Z,3.07
2023-01-04T05:35:53.577Z,2.70
2023-01-04T05:38:22.690Z,2.20
2023-01-04T05:40:51.752Z,2.17
2023-01-04T05:43:21.708Z,2.57
2023-01-04T05:45:52.763Z,2.40
2023-01-04T05:48:21.266Z,3.10
2023-01-04T05:50:49.369Z,2.60
2023-01-04T05:53:19.018Z,1.97
2023-01-04T05:55:47.280Z,2.77
2023-01-04T05:58:15.460Z,2.10
2023-01-04T06:00:43.361Z,2.97
2023-01-04T06:03:12.873Z,2.43
2023-01-04T06:05:41.003Z,2.37
2023-01-04T06:08:09.007Z,2.07
2023-01-04T06:10:36.933Z,2.47
2023-01-04T06:13:05.423Z,2.27
2023-01-04T06:15:39.374Z,2.40
2023-01-04T06:18:13.756Z,1.47
2023-01-04T06:20:43.280Z,2.10
2023-01-04T06:23:11.186Z,2.03
2023-01-04T06:25:39.296Z,2.03
2023-01-04T06:28:07.467Z,2.20
2023-01-04T06:30:36.645Z,2.20
2023-01-04T06:33:04.768Z,1.57
2023-01-04T06:35:35.999Z,1.83
2023-01-04T06:38:03.937Z,1.40
2023-01-04T06:40:31.858Z,0.93
2023-01-04T06:42:59.799Z,1.53
2023-01-04T06:45:27.735Z,1.90
2023-01-04T06:47:55.672Z,1.60
2023-01-04T06:50:23.575Z,1.57
2023-01-04T06:52:52.923Z,1.60
2023-01-04T06:55:20.915Z,1.70
2023-01-04T06:57:48.917Z,1.30
2023-01-04T07:00:17.708Z,1.40
2023-01-04T07:03:14.255Z,1.20
2023-01-04T07:05:34.049Z,1.40
2023-01-04T07:08:07.996Z,1.53
2023-01-04T07:10:36.710Z,1.07
2023-01-04T07:13:04.923Z,1.30
2023-01-04T07:15:39.538Z,1.33
2023-01-04T07:18:08.532Z,0.67
2023-01-04T07:20:36.626Z,1.17
2023-01-04T07:23:06.693Z,0.80
2023-01-04T07:25:34.862Z,1.20
2023-01-04T07:28:03.221Z,0.80
2023-01-04T07:30:31.262Z,1.30
2023-01-04T07:32:59.302Z,1.30
2023-01-04T07:35:27.531Z,1.17
2023-01-04T07:37:58.757Z,1.87
2023-01-04T07:40:28.962Z,1.10
2023-01-04T07:42:58.379Z,1.53
2023-01-04T07:45:26.662Z,2.03
2023-01-04T07:47:54.858Z,1.87
2023-01-04T07:50:22.883Z,1.93
2023-01-04T07:52:50.921Z,1.53
2023-01-04T07:55:18.961Z,1.77
2023-01-04T07:57:48.284Z,1.00
2023-01-04T08:00:16.891Z,1.17
2023-01-04T08:02:45.235Z,2.00
2023-01-04T08:05:13.409Z,1.93
2023-01-04T08:07:41.467Z,1.77
2023-01-04T08:10:09.820Z,1.43
2023-01-04T08:12:37.760Z,1.80
2023-01-04T08:15:09.000Z,1.80
2023-01-04T08:17:37.017Z,2.20
2023-01-04T08:20:05.687Z,2.40
2023-01-04T08:22:33.628Z,1.60
2023-01-04T08:25:01.654Z,1.70
2023-01-04T08:27:29.651Z,2.27
2023-01-04T08:29:57.752Z,2.10
2023-01-04T08:32:27.430Z,1.30
2023-01-04T08:34:55.660Z,1.50
2023-01-04T08:37:23.718Z,1.50
2023-01-04T08:39:51.756Z,1.87
2023-01-04T08:42:28.539Z,2.30
2023-01-04T08:45:01.554Z,1.97
2023-01-04T08:47:32.535Z,1.87
2023-01-04T08:50:08.249Z,1.97
2023-01-04T08:52:38.562Z,2.80
2023-01-04T08:55:12.715Z,2.27
2023-01-04T08:57:41.491Z,2.27
2023-01-04T09:00:11.312Z,2.17
2023-01-04T09:02:51.071Z,2.23
2023-01-04T09:05:22.370Z,2.40
2023-01-04T09:07:51.226Z,2.10
2023-01-04T09:10:19.361Z,2.33
2023-01-04T09:12:47.885Z,3.03
2023-01-04T09:15:16.803Z,1.63
2023-01-04T09:18:05.240Z,2.03
2023-01-04T09:20:34.137Z,2.17
2023-01-04T09:23:02.236Z,1.60
2023-01-04T09:25:30.303Z,2.13
2023-01-04T09:27:58.749Z,1.53
2023-01-04T09:30:26.734Z,2.17
2023-01-04T09:32:55.996Z,2.57
2023-01-04T09:35:24.266Z,2.40
2023-01-04T09:37:52.200Z,2.20
2023-01-04T09:40:24.171Z,2.37
2023-01-04T09:43:20.194Z,2.40
2023-01-04T09:45:41.728Z,2.80
2023-01-04T09:48:18.922Z,2.03
2023-01-04T09:50:55.389Z,1.77
2023-01-04T09:53:28.317Z,1.63
2023-01-04T09:56:02.668Z,1.47
2023-01-04T09:58:34.478Z,1.80
2023-01-04T10:01:06.192Z,1.80
2023-01-04T10:03:38.850Z,1.70
2023-01-04T10:06:11.312Z,2.77
2023-01-04T10:08:41.909Z,2.07
2023-01-04T10:11:29.895Z,1.57
2023-01-04T10:14:15.935Z,1.53
2023-01-04T10:17:14.720Z,1.97
2023-01-04T10:22:59.344Z,1.83
2023-01-04T10:25:37.246Z,2.23
2023-01-04T10:28:15.297Z,1.67
2023-01-04T10:30:52.669Z,1.30
2023-01-04T10:33:27.807Z,1.67
2023-01-04T10:35:58.273Z,1.80
2023-01-04T10:38:31.028Z,1.63
2023-01-04T10:41:03.956Z,1.40
2023-01-04T10:44:11.866Z,1.47
2023-01-04T10:46:31.180Z,1.67
2023-01-04T10:49:02.096Z,1.87
2023-01-04T10:51:36.482Z,1.50
2023-01-04T10:54:12.560Z,1.10
2023-01-04T10:56:45.689Z,1.63
2023-01-04T10:59:19.535Z,1.47
2023-01-04T11:01:53.138Z,1.40
2023-01-04T11:04:25.991Z,1.57
2023-01-04T11:07:03.833Z,2.00
2023-01-04T11:12:14.818Z,2.23
2023-01-04T11:14:43.102Z,1.30
2023-01-04T11:17:13.288Z,1.60
2023-01-04T11:19:42.020Z,1.40
2023-01-04T11:22:21.042Z,1.70
2023-01-04T11:27:51.698Z,1.53
2023-01-04T11:30:46.507Z,1.67
2023-01-04T11:33:18.085Z,1.30
2023-01-04T11:35:48.371Z,1.40
2023-01-04T11:38:18.596Z,1.90
2023-01-04T11:41:02.072Z,1.37
2023-01-04T11:43:31.186Z,1.60
2023-01-04T11:46:04.168Z,1.03
2023-01-04T11:48:37.758Z,1.20
2023-01-04T11:51:10.080Z,1.53
2023-01-04T11:53:40.424Z,1.57
2023-01-04T11:56:18.179Z,2.13
2023-01-04T11:59:04.088Z,1.30
2023-01-04T12:01:39.313Z,0.90
2023-01-04T12:04:17.103Z,1.10
2023-01-04T12:06:51.380Z,1.33
2023-01-04T12:09:21.103Z,0.97
2023-01-04T12:11:51.927Z,0.83
2023-01-04T12:14:23.497Z,1.30
2023-01-04T12:17:02.658Z,1.23
2023-01-04T12:19:31.552Z,1.20
2023-01-04T12:22:02.218Z,1.30
2023-01-04T12:24:32.397Z,1.53
2023-01-04T12:27:01.632Z,1.10
2023-01-04T12:29:57.995Z,1.00
2023-01-04T12:32:47.226Z,1.63
2023-01-04T12:36:01.618Z,1.40
2023-01-04T12:38:59.293Z,1.27
2023-01-04T12:42:17.632Z,1.20
2023-01-04T12:45:18.108Z,1.20
2023-01-04T12:48:07.236Z,1.70
2023-01-04T12:51:30.997Z,1.23
2023-01-04T12:54:02.352Z,1.40
2023-01-04T12:57:07.872Z,1.10
2023-01-04T12:59:37.971Z,1.70
2023-01-04T13:02:24.003Z,1.00
2023-01-04T13:05:16.915Z,1.50
2023-01-04T13:07:46.806Z,1.43
2023-01-04T13:10:26.597Z,1.50
2023-01-04T13:13:09.097Z,1.37
2023-01-04T13:15:49.927Z,1.17
2023-01-04T13:18:38.825Z,1.23
2023-01-04T13:21:14.770Z,1.43
2023-01-04T13:23:50.791Z,1.30
2023-01-04T13:26:35.170Z,1.60
2023-01-04T13:29:14.183Z,1.30
2023-01-04T13:31:49.645Z,1.23
2023-01-04T13:34:20.971Z,1.50
2023-01-04T13:37:04.164Z,1.43
2023-01-04T13:39:32.513Z,1.30
2023-01-04T13:42:03.655Z,1.33
2023-01-04T13:45:22.708Z,1.87
2023-01-04T13:47:54.120Z,1.70
2023-01-04T13:50:30.949Z,1.43
2023-01-04T13:53:07.012Z,1.70
2023-01-04T13:55:40.274Z,1.13
2023-01-04T13:58:17.838Z,1.50
2023-01-04T14:00:48.111Z,1.90
2023-01-04T14:03:37.307Z,1.23
2023-01-04T14:06:22.410Z,1.00
2023-01-04T14:09:07.415Z,0.83
2023-01-04T14:12:09.165Z,1.20
2023-01-04T14:14:46.379Z,1.30
2023-01-04T14:17:20.700Z,1.50
2023-01-04T14:19:51.761Z,1.30
2023-01-04T14:22:41.976Z,1.87
2023-01-04T14:25:56.277Z,1.30
2023-01-04T14:28:43.165Z,1.33
2023-01-04T14:31:35.436Z,1.03
2023-01-04T14:34:08.851Z,1.50
2023-01-04T14:36:39.693Z,1.50
2023-01-04T14:39:22.233Z,1.43
2023-01-04T14:41:57.603Z,0.97
2023-01-04T14:44:31.650Z,0.83
2023-01-04T14:47:01.835Z,1.23
2023-01-04T14:49:31.485Z,0.87
2023-01-04T14:52:00.827Z,1.33
2023-01-04T14:54:31.554Z,1.40
2023-01-04T14:57:00.366Z,1.20
2023-01-04T14:59:30.210Z,1.07
2023-01-04T15:01:59.188Z,1.20
2023-01-04T15:04:31.595Z,0.80
2023-01-04T15:07:01.811Z,0.67
2023-01-04T15:09:30.670Z,0.90
2023-01-04T15:12:01.419Z,0.97
2023-01-04T15:14:30.833Z,0.97
2023-01-04T15:16:58.750Z,1.10
2023-01-04T15:19:26.870Z,1.10
2023-01-04T15:21:54.829Z,1.00
2023-01-04T15:24:22.920Z,1.20
2023-01-04T15:26:51.520Z,1.57
2023-01-04T15:29:19.479Z,0.73
2023-01-04T15:31:49.576Z,0.80
2023-01-04T15:34:18.131Z,1.40
2023-01-04T15:36:46.178Z,0.80
2023-01-04T15:39:14.759Z,0.93
2023-01-04T15:42:00.144Z,0.80
2023-01-04T15:44:28.376Z,0.87
2023-01-04T15:46:59.428Z,0.87
2023-01-04T15:49:29.680Z,1.07
2023-01-04T15:51:58.033Z,0.90
2023-01-04T15:54:26.485Z,0.87
2023-01-04T15:56:54.698Z,1.03
2023-01-04T15:59:22.768Z,0.90
2023-01-04T16:01:50.835Z,0.97
2023-01-04T16:04:20.541Z,0.70
2023-01-04T16:06:49.348Z,0.80
2023-01-04T16:09:17.316Z,0.60
2023-01-04T16:11:59.205Z,0.83
2023-01-04T16:14:27.225Z,1.40
2023-01-04T16:16:55.246Z,0.67
2023-01-04T16:19:25.256Z,0.67
2023-01-04T16:21:53.312Z,0.70
2023-01-04T16:25:00.203Z,0.97
2023-01-04T16:27:09.791Z,0.80
2023-01-04T16:29:37.872Z,1.10
2023-01-04T16:32:06.373Z,0.70
2023-01-04T16:34:36.278Z,0.77
2023-01-04T16:37:04.554Z,0.80
2023-01-04T16:42:21.677Z,1.00
2023-01-04T16:44:49.722Z,0.83
2023-01-04T16:47:17.939Z,0.73
2023-01-04T16:49:52.157Z,0.83
2023-01-04T16:52:20.116Z,1.33
2023-01-04T16:54:47.975Z,0.50
2023-01-04T16:57:16.030Z,0.77
2023-01-04T16:59:44.124Z,0.50
2023-01-04T17:02:13.627Z,0.90
2023-01-04T17:04:41.877Z,0.70
2023-01-04T17:07:11.459Z,0.77
2023-01-04T17:09:41.179Z,0.80
2023-01-04T17:15:42.071Z,0.70
2023-01-04T17:18:00.290Z,0.70
2023-01-04T17:20:28.341Z,0.60
2023-01-04T17:22:57.690Z,0.50
2023-01-04T17:25:27.822Z,0.70
2023-01-04T17:27:55.736Z,0.67
2023-01-04T17:30:23.828Z,0.60
2023-01-04T17:32:51.745Z,0.47
2023-01-04T17:35:21.610Z,0.80
2023-01-04T17:37:49.799Z,0.80
2023-01-04T17:40:23.261Z,0.90
2023-01-04T17:42:51.986Z,0.60
2023-01-04T17:45:20.274Z,0.60
2023-01-04T17:47:48.301Z,0.70
2023-01-04T17:50:18.094Z,0.77
2023-01-04T17:52:47.554Z,0.43
2023-01-04T17:55:15.776Z,0.77
2023-01-04T17:57:45.579Z,0.57
2023-01-04T18:00:15.197Z,0.67
2023-01-04T18:02:43.326Z,0.77
2023-01-04T18:05:12.044Z,0.50
2023-01-04T18:07:40.114Z,0.60
2023-01-04T18:10:20.671Z,0.80
2023-01-04T18:12:50.732Z,0.70
2023-01-04T18:15:18.763Z,0.30
2023-01-04T18:17:46.680Z,0.47
2023-01-04T18:20:24.121Z,0.80
2023-01-04T18:22:52.856Z,0.90
2023-01-04T18:25:20.981Z,0.70
2023-01-04T18:27:50.654Z,0.53
2023-01-04T18:30:18.819Z,0.50
2023-01-04T18:32:47.499Z,0.77
2023-01-04T18:35:17.906Z,0.40
2023-01-04T18:37:46.451Z,0.50
2023-01-04T18:40:14.914Z,0.77
2023-01-04T18:42:47.461Z,0.50
2023-01-04T18:45:27.634Z,0.50
2023-01-04T18:47:57.956Z,0.47
2023-01-04T18:50:26.539Z,0.77
2023-01-04T18:52:59.079Z,0.70
2023-01-04T18:55:27.221Z,0.40
2023-01-04T18:57:55.174Z,0.63
2023-01-04T19:00:29.990Z,0.70
2023-01-04T19:02:58.925Z,0.37
2023-01-04T19:05:27.817Z,0.80
2023-01-04T19:07:56.280Z,0.60
2023-01-04T19:10:26.412Z,0.50
2023-01-04T19:12:55.842Z,0.50
2023-01-04T19:15:25.716Z,0.70
2023-01-04T19:17:53.890Z,0.60
2023-01-04T19:20:22.007Z,0.60
2023-01-04T19:22:50.084Z,0.50
2023-01-04T19:25:20.820Z,0.67
2023-01-04T19:27:57.747Z,0.50
2023-01-04T19:30:30.185Z,0.50
2023-01-04T19:32:59.388Z,0.50
2023-01-04T19:35:27.425Z,0.60
2023-01-04T19:38:03.726Z,0.50
2023-01-04T19:40:37.079Z,0.30
2023-01-04T19:43:10.107Z,0.60
2023-01-04T19:45:42.490Z,0.70
2023-01-04T19:48:19.859Z,0.30
2023-01-04T19:50:48.922Z,0.87
2023-01-04T19:53:21.373Z,0.70
2023-01-04T19:55:51.994Z,0.60
2023-01-04T19:58:20.702Z,0.77
2023-01-04T20:00:54.467Z,0.70
2023-01-04T20:03:23.755Z,0.60
2023-01-04T20:05:52.072Z,0.90
2023-01-04T20:08:20.657Z,0.70
2023-01-04T20:10:55.099Z,0.97
2023-01-04T20:13:23.573Z,0.43
2023-01-04T20:15:53.928Z,0.70
2023-01-04T20:18:23.825Z,0.60
2023-01-04T20:20:54.377Z,0.47
2023-01-04T20:23:22.868Z,0.63
2023-01-04T20:25:53.243Z,0.30
2023-01-04T20:28:24.874Z,0.60
2023-01-04T20:31:04.161Z,0.43
2023-01-04T20:33:33.030Z,0.47
2023-01-04T20:36:07.634Z,0.63
2023-01-04T20:38:40.217Z,0.50
2023-01-04T20:41:10.113Z,0.17
2023-01-04T20:43:38.198Z,0.50
2023-01-04T20:46:13.814Z,0.60
2023-01-04T20:48:42.454Z,0.60
2023-01-04T20:51:14.163Z,0.53
2023-01-04T20:53:47.276Z,0.77
2023-01-04T20:56:17.186Z,0.70
2023-01-04T20:58:46.839Z,0.47
2023-01-04T21:01:17.523Z,0.50
2023-01-04T21:03:47.595Z,0.80
2023-01-04T21:06:18.284Z,0.40
2023-01-04T21:08:50.420Z,0.40
2023-01-04T21:11:19.514Z,0.30
2023-01-04T21:13:47.826Z,0.83
2023-01-04T21:16:17.346Z,0.70
2023-01-04T21:18:53.843Z,0.53
2023-01-04T21:21:22.153Z,0.80
2023-01-04T21:23:57.557Z,0.70
2023-01-04T21:26:26.082Z,0.30
2023-01-04T21:28:54.567Z,0.90
2023-01-04T21:31:26.614Z,0.60
2023-01-04T21:33:55.424Z,0.60
2023-01-04T21:36:25.323Z,0.83
2023-01-04T21:38:56.042Z,0.63
2023-01-04T21:41:25.611Z,0.60
2023-01-04T21:44:12.212Z,0.73
2023-01-04T21:46:48.261Z,0.63
2023-01-04T21:49:16.425Z,0.60
2023-01-04T21:51:45.215Z,0.80
2023-01-04T21:54:14.603Z,0.57
2023-01-04T21:56:42.727Z,0.60
2023-01-04T21:59:10.790Z,0.70
2023-01-04T22:01:38.967Z,0.60
2023-01-04T22:04:08.506Z,0.70
2023-01-04T22:06:38.927Z,0.90
2023-01-04T22:09:07.305Z,0.73
2023-01-04T22:11:35.281Z,0.90
2023-01-04T22:14:03.278Z,1.17
2023-01-04T22:16:31.359Z,0.97
2023-01-04T22:18:59.437Z,0.83
2023-01-04T22:21:29.006Z,0.87
2023-01-04T22:23:57.027Z,0.93
2023-01-04T22:26:25.051Z,0.80
2023-01-04T22:28:53.073Z,1.40
2023-01-04T22:31:21.131Z,0.70
2023-01-04T22:33:49.392Z,1.23
2023-01-04T22:36:22.843Z,1.00
2023-01-04T22:38:53.727Z,1.50
2023-01-04T22:41:22.913Z,1.10
2023-01-04T22:43:56.707Z,1.43
2023-01-04T22:46:26.065Z,0.83
2023-01-04T22:48:54.446Z,1.30
2023-01-04T22:51:23.797Z,1.13
2023-01-04T22:53:55.846Z,1.53
2023-01-04T22:56:24.192Z,0.53
2023-01-04T22:58:55.376Z,0.73
2023-01-04T23:01:24.689Z,0.77
2023-01-04T23:03:53.127Z,1.07
2023-01-04T23:06:22.072Z,0.53
2023-01-04T23:08:54.900Z,1.37
2023-01-04T23:11:24.814Z,1.30
2023-01-04T23:13:53.406Z,0.57
2023-01-04T23:16:26.266Z,0.67
2023-01-04T23:18:59.404Z,0.80
2023-01-04T23:21:27.372Z,1.20
2023-01-04T23:23:55.396Z,1.00
2023-01-04T23:26:25.935Z,0.87
2023-01-04T23:28:54.020Z,0.97
2023-01-04T23:31:24.056Z,1.50
2023-01-04T23:33:54.060Z,0.70
2023-01-04T23:36:24.551Z,0.60
2023-01-04T23:38:55.072Z,0.90
2023-01-04T23:41:44.241Z,0.77
2023-01-04T23:44:14.870Z,0.40
2023-01-04T23:46:43.340Z,0.90
2023-01-04T23:49:11.735Z,0.90
2023-01-04T23:51:39.718Z,1.43
2023-01-04T23:54:08.970Z,0.77
2023-01-04T23:56:39.240Z,0.73
2023-01-04T23:59:07.754Z,1.00
